sensor_id;sensor_type;location;lat;lon;timestamp;P1;durP1;ratioP1;P2;durP2;ratioP2
47373;SDS011;33123;50.118;10.272;2023-02-13T00:01:41;5.90;;;5.32;;
47373;SDS011;33123;50.118;10.272;2023-02-13T00:04:08;6.97;;;5.65;;
47373;SDS011;33123;50.118;10.272;2023-02-13T00:06:34;5.03;;;4.55;;
47373;SDS011;33123;50.118;10.272;2023-02-13T00:09:01;5.63;;;4.35;;
47373;SDS011;33123;50.118;10.272;2023-02-13T00:11:28;6.53;;;5.10;;
47373;SDS011;33123;50.118;10.272;2023-02-13T00:13:56;5.45;;;4.95;;
47373;SDS011;33123;50.118;10.272;2023-02-13T00:16:23;6.28;;;4.47;;
47373;SDS011;33123;50.118;10.272;2023-02-13T00:18:50;5.57;;;5.00;;
47373;SDS011;33123;50.118;10.272;2023-02-13T00:21:16;6.50;;;4.65;;
47373;SDS011;33123;50.118;10.272;2023-02-13T00:23:43;4.50;;;3.80;;
47373;SDS011;33123;50.118;10.272;2023-02-13T00:26:10;6.07;;;4.47;;
47373;SDS011;33123;50.118;10.272;2023-02-13T00:28:38;5.50;;;5.00;;
47373;SDS011;33123;50.118;10.272;2023-02-13T00:31:07;5.60;;;4.00;;
47373;SDS011;33123;50.118;10.272;2023-02-13T00:33:35;6.38;;;4.15;;
47373;SDS011;33123;50.118;10.272;2023-02-13T00:36:03;11.55;;;6.22;;
47373;SDS011;33123;50.118;10.272;2023-02-13T00:38:32;7.18;;;4.50;;
47373;SDS011;33123;50.118;10.272;2023-02-13T00:40:59;8.38;;;4.32;;
47373;SDS011;33123;50.118;10.272;2023-02-13T00:43:25;5.40;;;4.15;;
47373;SDS011;33123;50.118;10.272;2023-02-13T00:45:52;6.72;;;5.35;;
47373;SDS011;33123;50.118;10.272;2023-02-13T00:48:20;5.38;;;4.93;;
47373;SDS011;33123;50.118;10.272;2023-02-13T00:50:46;6.82;;;4.78;;
47373;SDS011;33123;50.118;10.272;2023-02-13T00:53:13;5.78;;;5.18;;
47373;SDS011;33123;50.118;10.272;2023-02-13T00:55:40;11.45;;;6.32;;
47373;SDS011;33123;50.118;10.272;2023-02-13T00:58:06;6.15;;;5.38;;
47373;SDS011;33123;50.118;10.272;2023-02-13T01:00:33;5.80;;;5.00;;
47373;SDS011;33123;50.118;10.272;2023-02-13T01:02:59;5.55;;;4.53;;
47373;SDS011;33123;50.118;10.272;2023-02-13T01:05:27;7.07;;;5.05;;
47373;SDS011;33123;50.118;10.272;2023-02-13T01:07:54;5.55;;;5.05;;
47373;SDS011;33123;50.118;10.272;2023-02-13T01:10:21;5.78;;;5.28;;
47373;SDS011;33123;50.118;10.272;2023-02-13T01:12:48;6.15;;;5.50;;
47373;SDS011;33123;50.118;10.272;2023-02-13T01:15:14;5.13;;;4.72;;
47373;SDS011;33123;50.118;10.272;2023-02-13T01:17:41;9.90;;;4.78;;
47373;SDS011;33123;50.118;10.272;2023-02-13T01:20:08;4.95;;;4.55;;
47373;SDS011;33123;50.118;10.272;2023-02-13T01:22:38;12.00;;;7.70;;
47373;SDS011;33123;50.118;10.272;2023-02-13T01:25:05;6.88;;;6.28;;
47373;SDS011;33123;50.118;10.272;2023-02-13T01:27:32;11.32;;;6.07;;
47373;SDS011;33123;50.118;10.272;2023-02-13T01:29:59;4.95;;;4.55;;
47373;SDS011;33123;50.118;10.272;2023-02-13T01:32:25;6.32;;;5.68;;
47373;SDS011;33123;50.118;10.272;2023-02-13T01:34:52;4.10;;;3.65;;
47373;SDS011;33123;50.118;10.272;2023-02-13T01:37:18;4.90;;;4.38;;
47373;SDS011;33123;50.118;10.272;2023-02-13T01:39:46;3.92;;;3.63;;
47373;SDS011;33123;50.118;10.272;2023-02-13T01:42:15;4.10;;;3.80;;
47373;SDS011;33123;50.118;10.272;2023-02-13T01:44:48;4.10;;;3.72;;
47373;SDS011;33123;50.118;10.272;2023-02-13T01:47:21;4.95;;;3.63;;
47373;SDS011;33123;50.118;10.272;2023-02-13T01:49:54;3.60;;;3.05;;
47373;SDS011;33123;50.118;10.272;2023-02-13T01:52:28;3.85;;;3.53;;
47373;SDS011;33123;50.118;10.272;2023-02-13T01:54:56;3.00;;;2.80;;
47373;SDS011;33123;50.118;10.272;2023-02-13T01:57:23;2.88;;;2.60;;
47373;SDS011;33123;50.118;10.272;2023-02-13T01:59:54;3.70;;;3.17;;
47373;SDS011;33123;50.118;10.272;2023-02-13T02:02:23;3.67;;;3.20;;
47373;SDS011;33123;50.118;10.272;2023-02-13T02:04:51;4.75;;;3.17;;
47373;SDS011;33123;50.118;10.272;2023-02-13T02:07:19;4.55;;;4.15;;
47373;SDS011;33123;50.118;10.272;2023-02-13T02:09:49;5.05;;;3.60;;
47373;SDS011;33123;50.118;10.272;2023-02-13T02:12:21;5.25;;;4.47;;
47373;SDS011;33123;50.118;10.272;2023-02-13T02:14:51;3.77;;;3.47;;
47373;SDS011;33123;50.118;10.272;2023-02-13T02:17:19;2.53;;;2.33;;
47373;SDS011;33123;50.118;10.272;2023-02-13T02:19:48;3.13;;;2.83;;
47373;SDS011;33123;50.118;10.272;2023-02-13T02:25:28;2.35;;;2.15;;
47373;SDS011;33123;50.118;10.272;2023-02-13T02:28:19;4.03;;;3.03;;
47373;SDS011;33123;50.118;10.272;2023-02-13T02:31:17;3.58;;;3.15;;
47373;SDS011;33123;50.118;10.272;2023-02-13T02:33:55;3.28;;;2.45;;
47373;SDS011;33123;50.118;10.272;2023-02-13T02:36:35;3.17;;;2.90;;
47373;SDS011;33123;50.118;10.272;2023-02-13T02:39:13;2.42;;;2.22;;
47373;SDS011;33123;50.118;10.272;2023-02-13T02:41:52;2.50;;;2.05;;
47373;SDS011;33123;50.118;10.272;2023-02-13T02:44:29;2.30;;;2.10;;
47373;SDS011;33123;50.118;10.272;2023-02-13T02:49:54;4.10;;;2.53;;
47373;SDS011;33123;50.118;10.272;2023-02-13T02:52:36;2.50;;;1.90;;
47373;SDS011;33123;50.118;10.272;2023-02-13T02:55:09;4.07;;;3.28;;
47373;SDS011;33123;50.118;10.272;2023-02-13T02:57:47;2.83;;;2.08;;
47373;SDS011;33123;50.118;10.272;2023-02-13T03:00:35;2.55;;;2.35;;
47373;SDS011;33123;50.118;10.272;2023-02-13T03:03:23;2.10;;;1.95;;
47373;SDS011;33123;50.118;10.272;2023-02-13T03:06:12;1.83;;;1.73;;
47373;SDS011;33123;50.118;10.272;2023-02-13T03:08:43;3.78;;;3.47;;
47373;SDS011;33123;50.118;10.272;2023-02-13T03:11:30;2.55;;;1.55;;
47373;SDS011;33123;50.118;10.272;2023-02-13T03:14:29;3.10;;;2.80;;
47373;SDS011;33123;50.118;10.272;2023-02-13T03:16:56;2.92;;;2.72;;
47373;SDS011;33123;50.118;10.272;2023-02-13T03:19:42;3.15;;;2.83;;
47373;SDS011;33123;50.118;10.272;2023-02-13T03:22:39;2.05;;;1.85;;
47373;SDS011;33123;50.118;10.272;2023-02-13T03:25:11;2.65;;;2.38;;
47373;SDS011;33123;50.118;10.272;2023-02-13T03:27:44;3.78;;;3.05;;
47373;SDS011;33123;50.118;10.272;2023-02-13T03:30:36;1.98;;;1.73;;
47373;SDS011;33123;50.118;10.272;2023-02-13T03:33:16;3.22;;;2.92;;
47373;SDS011;33123;50.118;10.272;2023-02-13T03:35:52;1.38;;;1.27;;
47373;SDS011;33123;50.118;10.272;2023-02-13T03:38:48;1.77;;;1.67;;
47373;SDS011;33123;50.118;10.272;2023-02-13T03:41:19;1.58;;;1.48;;
47373;SDS011;33123;50.118;10.272;2023-02-13T03:43:55;2.10;;;2.00;;
47373;SDS011;33123;50.118;10.272;2023-02-13T03:46:30;2.30;;;2.08;;
47373;SDS011;33123;50.118;10.272;2023-02-13T03:49:00;3.83;;;2.65;;
47373;SDS011;33123;50.118;10.272;2023-02-13T03:51:48;3.83;;;2.30;;
47373;SDS011;33123;50.118;10.272;2023-02-13T03:54:20;2.63;;;1.98;;
47373;SDS011;33123;50.118;10.272;2023-02-13T03:57:09;2.13;;;1.92;;
47373;SDS011;33123;50.118;10.272;2023-02-13T03:59:55;3.78;;;2.55;;
47373;SDS011;33123;50.118;10.272;2023-02-13T04:02:24;2.78;;;1.77;;
47373;SDS011;33123;50.118;10.272;2023-02-13T04:04:57;1.73;;;1.63;;
47373;SDS011;33123;50.118;10.272;2023-02-13T04:07:30;1.65;;;1.55;;
47373;SDS011;33123;50.118;10.272;2023-02-13T04:09:59;1.60;;;1.50;;
47373;SDS011;33123;50.118;10.272;2023-02-13T04:12:30;2.40;;;2.20;;
47373;SDS011;33123;50.118;10.272;2023-02-13T04:15:06;4.30;;;2.33;;
47373;SDS011;33123;50.118;10.272;2023-02-13T04:17:38;2.53;;;2.08;;
47373;SDS011;33123;50.118;10.272;2023-02-13T04:20:08;3.92;;;2.45;;
47373;SDS011;33123;50.118;10.272;2023-02-13T04:22:40;2.28;;;1.98;;
47373;SDS011;33123;50.118;10.272;2023-02-13T04:25:10;2.53;;;1.90;;
47373;SDS011;33123;50.118;10.272;2023-02-13T04:27:38;1.75;;;1.65;;
47373;SDS011;33123;50.118;10.272;2023-02-13T04:30:05;1.88;;;1.70;;
47373;SDS011;33123;50.118;10.272;2023-02-13T04:32:33;2.38;;;2.17;;
47373;SDS011;33123;50.118;10.272;2023-02-13T04:34:59;2.28;;;1.92;;
47373;SDS011;33123;50.118;10.272;2023-02-13T04:37:26;1.83;;;1.73;;
47373;SDS011;33123;50.118;10.272;2023-02-13T04:39:53;1.92;;;1.77;;
47373;SDS011;33123;50.118;10.272;2023-02-13T04:42:21;2.50;;;1.80;;
47373;SDS011;33123;50.118;10.272;2023-02-13T04:44:47;2.78;;;1.92;;
47373;SDS011;33123;50.118;10.272;2023-02-13T04:47:14;1.83;;;1.73;;
47373;SDS011;33123;50.118;10.272;2023-02-13T04:49:40;2.08;;;1.65;;
47373;SDS011;33123;50.118;10.272;2023-02-13T04:52:07;1.98;;;1.80;;
47373;SDS011;33123;50.118;10.272;2023-02-13T04:54:34;1.70;;;1.60;;
47373;SDS011;33123;50.118;10.272;2023-02-13T04:57:00;1.15;;;1.15;;
47373;SDS011;33123;50.118;10.272;2023-02-13T04:59:28;1.63;;;1.52;;
47373;SDS011;33123;50.118;10.272;2023-02-13T05:01:55;2.67;;;1.95;;
47373;SDS011;33123;50.118;10.272;2023-02-13T05:04:23;1.77;;;1.35;;
47373;SDS011;33123;50.118;10.272;2023-02-13T05:06:49;1.33;;;1.23;;
47373;SDS011;33123;50.118;10.272;2023-02-13T05:09:16;1.75;;;1.65;;
47373;SDS011;33123;50.118;10.272;2023-02-13T05:11:43;1.77;;;1.65;;
47373;SDS011;33123;50.118;10.272;2023-02-13T05:14:10;1.58;;;1.48;;
47373;SDS011;33123;50.118;10.272;2023-02-13T05:16:38;2.08;;;1.88;;
47373;SDS011;33123;50.118;10.272;2023-02-13T05:19:04;1.80;;;1.70;;
47373;SDS011;33123;50.118;10.272;2023-02-13T05:21:31;1.63;;;1.52;;
47373;SDS011;33123;50.118;10.272;2023-02-13T05:24:15;2.13;;;1.95;;
47373;SDS011;33123;50.118;10.272;2023-02-13T05:26:41;1.98;;;1.77;;
47373;SDS011;33123;50.118;10.272;2023-02-13T05:29:08;1.52;;;1.25;;
47373;SDS011;33123;50.118;10.272;2023-02-13T05:31:48;3.17;;;1.38;;
47373;SDS011;33123;50.118;10.272;2023-02-13T05:34:16;2.40;;;1.85;;
47373;SDS011;33123;50.118;10.272;2023-02-13T05:36:43;2.58;;;1.75;;
47373;SDS011;33123;50.118;10.272;2023-02-13T05:39:10;1.92;;;1.83;;
47373;SDS011;33123;50.118;10.272;2023-02-13T05:41:37;2.03;;;1.58;;
47373;SDS011;33123;50.118;10.272;2023-02-13T05:44:03;1.33;;;1.20;;
47373;SDS011;33123;50.118;10.272;2023-02-13T05:46:30;1.48;;;1.35;;
47373;SDS011;33123;50.118;10.272;2023-02-13T05:48:58;2.15;;;1.65;;
47373;SDS011;33123;50.118;10.272;2023-02-13T05:51:25;1.35;;;1.25;;
47373;SDS011;33123;50.118;10.272;2023-02-13T05:53:51;1.63;;;1.52;;
47373;SDS011;33123;50.118;10.272;2023-02-13T05:56:18;1.17;;;1.17;;
47373;SDS011;33123;50.118;10.272;2023-02-13T05:58:45;1.95;;;1.85;;
47373;SDS011;33123;50.118;10.272;2023-02-13T06:01:11;1.63;;;1.25;;
47373;SDS011;33123;50.118;10.272;2023-02-13T06:03:38;1.60;;;1.50;;
47373;SDS011;33123;50.118;10.272;2023-02-13T06:06:06;1.70;;;1.60;;
47373;SDS011;33123;50.118;10.272;2023-02-13T06:08:33;1.98;;;1.73;;
47373;SDS011;33123;50.118;10.272;2023-02-13T06:11:00;2.30;;;2.10;;
47373;SDS011;33123;50.118;10.272;2023-02-13T06:13:27;2.65;;;2.15;;
47373;SDS011;33123;50.118;10.272;2023-02-13T06:15:53;2.70;;;2.10;;
47373;SDS011;33123;50.118;10.272;2023-02-13T06:18:20;2.05;;;1.52;;
47373;SDS011;33123;50.118;10.272;2023-02-13T06:20:47;1.20;;;1.10;;
47373;SDS011;33123;50.118;10.272;2023-02-13T06:23:15;1.45;;;1.35;;
47373;SDS011;33123;50.118;10.272;2023-02-13T06:25:41;1.17;;;1.08;;
47373;SDS011;33123;50.118;10.272;2023-02-13T06:28:08;1.67;;;1.55;;
47373;SDS011;33123;50.118;10.272;2023-02-13T06:30:35;2.10;;;1.90;;
47373;SDS011;33123;50.118;10.272;2023-02-13T06:33:01;2.08;;;1.98;;
47373;SDS011;33123;50.118;10.272;2023-02-13T06:35:28;1.38;;;1.27;;
47373;SDS011;33123;50.118;10.272;2023-02-13T06:37:55;1.42;;;1.33;;
47373;SDS011;33123;50.118;10.272;2023-02-13T06:40:23;2.97;;;1.30;;
47373;SDS011;33123;50.118;10.272;2023-02-13T06:42:49;1.27;;;1.17;;
47373;SDS011;33123;50.118;10.272;2023-02-13T06:45:16;0.90;;;0.90;;
47373;SDS011;33123;50.118;10.272;2023-02-13T06:47:43;0.93;;;0.93;;
47373;SDS011;33123;50.118;10.272;2023-02-13T06:50:12;2.20;;;2.03;;
47373;SDS011;33123;50.118;10.272;2023-02-13T06:52:44;1.45;;;1.35;;
47373;SDS011;33123;50.118;10.272;2023-02-13T06:55:11;1.40;;;1.30;;
47373;SDS011;33123;50.118;10.272;2023-02-13T06:57:39;1.35;;;1.25;;
47373;SDS011;33123;50.118;10.272;2023-02-13T07:00:06;1.38;;;1.27;;
47373;SDS011;33123;50.118;10.272;2023-02-13T07:02:37;1.92;;;1.75;;
47373;SDS011;33123;50.118;10.272;2023-02-13T07:05:04;2.13;;;1.63;;
47373;SDS011;33123;50.118;10.272;2023-02-13T07:07:31;1.25;;;1.17;;
47373;SDS011;33123;50.118;10.272;2023-02-13T07:09:58;2.53;;;1.42;;
47373;SDS011;33123;50.118;10.272;2023-02-13T07:12:25;4.82;;;1.92;;
47373;SDS011;33123;50.118;10.272;2023-02-13T07:14:53;1.45;;;1.35;;
47373;SDS011;33123;50.118;10.272;2023-02-13T07:17:20;1.60;;;1.50;;
47373;SDS011;33123;50.118;10.272;2023-02-13T07:19:46;2.33;;;2.13;;
47373;SDS011;33123;50.118;10.272;2023-02-13T07:22:13;1.52;;;1.40;;
47373;SDS011;33123;50.118;10.272;2023-02-13T07:24:39;2.58;;;1.98;;
47373;SDS011;33123;50.118;10.272;2023-02-13T07:27:06;1.10;;;1.08;;
47373;SDS011;33123;50.118;10.272;2023-02-13T07:29:32;1.23;;;1.15;;
47373;SDS011;33123;50.118;10.272;2023-02-13T07:32:00;1.27;;;1.17;;
47373;SDS011;33123;50.118;10.272;2023-02-13T07:34:27;0.90;;;0.90;;
47373;SDS011;33123;50.118;10.272;2023-02-13T07:36:54;1.65;;;1.00;;
47373;SDS011;33123;50.118;10.272;2023-02-13T07:39:21;0.70;;;0.70;;
47373;SDS011;33123;50.118;10.272;2023-02-13T07:41:47;1.02;;;0.70;;
47373;SDS011;33123;50.118;10.272;2023-02-13T07:44:14;0.60;;;0.60;;
47373;SDS011;33123;50.118;10.272;2023-02-13T07:46:40;0.50;;;0.50;;
47373;SDS011;33123;50.118;10.272;2023-02-13T07:49:08;1.08;;;1.00;;
47373;SDS011;33123;50.118;10.272;2023-02-13T07:51:35;0.77;;;0.77;;
47373;SDS011;33123;50.118;10.272;2023-02-13T07:54:02;0.70;;;0.70;;
47373;SDS011;33123;50.118;10.272;2023-02-13T07:56:28;0.63;;;0.63;;
47373;SDS011;33123;50.118;10.272;2023-02-13T07:58:55;0.60;;;0.60;;
47373;SDS011;33123;50.118;10.272;2023-02-13T08:01:22;1.08;;;0.93;;
47373;SDS011;33123;50.118;10.272;2023-02-13T08:03:48;0.73;;;0.73;;
47373;SDS011;33123;50.118;10.272;2023-02-13T08:06:18;0.65;;;0.65;;
47373;SDS011;33123;50.118;10.272;2023-02-13T08:08:45;0.80;;;0.80;;
47373;SDS011;33123;50.118;10.272;2023-02-13T08:11:18;1.02;;;1.00;;
47373;SDS011;33123;50.118;10.272;2023-02-13T08:14:09;1.25;;;1.15;;
47373;SDS011;33123;50.118;10.272;2023-02-13T08:16:35;1.27;;;0.82;;
47373;SDS011;33123;50.118;10.272;2023-02-13T08:19:02;0.70;;;0.70;;
47373;SDS011;33123;50.118;10.272;2023-02-13T08:21:30;0.85;;;0.85;;
47373;SDS011;33123;50.118;10.272;2023-02-13T08:23:59;0.75;;;0.75;;
47373;SDS011;33123;50.118;10.272;2023-02-13T08:26:26;1.05;;;1.00;;
47373;SDS011;33123;50.118;10.272;2023-02-13T08:28:52;0.40;;;0.40;;
47373;SDS011;33123;50.118;10.272;2023-02-13T08:31:20;1.17;;;0.90;;
47373;SDS011;33123;50.118;10.272;2023-02-13T08:33:47;0.70;;;0.70;;
47373;SDS011;33123;50.118;10.272;2023-02-13T08:36:13;0.95;;;0.88;;
47373;SDS011;33123;50.118;10.272;2023-02-13T08:38:41;0.80;;;0.80;;
47373;SDS011;33123;50.118;10.272;2023-02-13T08:41:08;0.65;;;0.65;;
47373;SDS011;33123;50.118;10.272;2023-02-13T08:43:35;0.75;;;0.75;;
47373;SDS011;33123;50.118;10.272;2023-02-13T08:46:01;1.00;;;1.00;;
47373;SDS011;33123;50.118;10.272;2023-02-13T08:48:28;7.57;;;6.57;;
47373;SDS011;33123;50.118;10.272;2023-02-13T08:50:55;9.65;;;8.63;;
47373;SDS011;33123;50.118;10.272;2023-02-13T08:53:21;1.85;;;1.73;;
47373;SDS011;33123;50.118;10.272;2023-02-13T08:55:53;1.08;;;0.88;;
47373;SDS011;33123;50.118;10.272;2023-02-13T08:58:19;1.27;;;1.27;;
47373;SDS011;33123;50.118;10.272;2023-02-13T09:00:46;1.50;;;1.38;;
47373;SDS011;33123;50.118;10.272;2023-02-13T09:03:13;0.77;;;0.77;;
47373;SDS011;33123;50.118;10.272;2023-02-13T09:05:40;1.13;;;1.00;;
47373;SDS011;33123;50.118;10.272;2023-02-13T09:08:07;0.93;;;0.93;;
47373;SDS011;33123;50.118;10.272;2023-02-13T09:10:36;0.80;;;0.80;;
47373;SDS011;33123;50.118;10.272;2023-02-13T09:13:05;1.95;;;1.17;;
47373;SDS011;33123;50.118;10.272;2023-02-13T09:15:32;0.80;;;0.80;;
47373;SDS011;33123;50.118;10.272;2023-02-13T09:17:59;0.85;;;0.85;;
47373;SDS011;33123;50.118;10.272;2023-02-13T09:20:25;1.35;;;1.25;;
47373;SDS011;33123;50.118;10.272;2023-02-13T09:22:53;0.70;;;0.70;;
47373;SDS011;33123;50.118;10.272;2023-02-13T09:25:20;1.30;;;1.23;;
47373;SDS011;33123;50.118;10.272;2023-02-13T09:27:47;0.95;;;0.90;;
47373;SDS011;33123;50.118;10.272;2023-02-13T09:30:15;1.48;;;1.33;;
47373;SDS011;33123;50.118;10.272;2023-02-13T09:32:47;1.02;;;1.02;;
47373;SDS011;33123;50.118;10.272;2023-02-13T09:35:14;1.35;;;1.25;;
47373;SDS011;33123;50.118;10.272;2023-02-13T09:37:40;1.00;;;1.00;;
47373;SDS011;33123;50.118;10.272;2023-02-13T09:40:12;1.13;;;1.02;;
47373;SDS011;33123;50.118;10.272;2023-02-13T09:42:43;2.53;;;1.30;;
47373;SDS011;33123;50.118;10.272;2023-02-13T09:45:11;0.93;;;0.93;;
47373;SDS011;33123;50.118;10.272;2023-02-13T09:47:42;3.05;;;1.27;;
47373;SDS011;33123;50.118;10.272;2023-02-13T09:50:11;0.73;;;0.73;;
47373;SDS011;33123;50.118;10.272;2023-02-13T09:52:42;1.25;;;1.13;;
47373;SDS011;33123;50.118;10.272;2023-02-13T09:55:15;1.63;;;1.52;;
47373;SDS011;33123;50.118;10.272;2023-02-13T09:57:45;1.48;;;1.38;;
47373;SDS011;33123;50.118;10.272;2023-02-13T10:00:18;1.00;;;1.00;;
47373;SDS011;33123;50.118;10.272;2023-02-13T10:03:01;1.27;;;1.20;;
47373;SDS011;33123;50.118;10.272;2023-02-13T10:05:43;2.00;;;1.40;;
47373;SDS011;33123;50.118;10.272;2023-02-13T10:08:17;2.35;;;1.30;;
47373;SDS011;33123;50.118;10.272;2023-02-13T10:10:52;1.25;;;1.17;;
47373;SDS011;33123;50.118;10.272;2023-02-13T10:13:43;1.55;;;1.42;;
47373;SDS011;33123;50.118;10.272;2023-02-13T10:16:21;1.40;;;1.30;;
47373;SDS011;33123;50.118;10.272;2023-02-13T10:18:52;1.38;;;1.30;;
47373;SDS011;33123;50.118;10.272;2023-02-13T10:21:23;1.50;;;1.40;;
47373;SDS011;33123;50.118;10.272;2023-02-13T10:23:56;1.67;;;1.58;;
47373;SDS011;33123;50.118;10.272;2023-02-13T10:26:27;1.65;;;1.52;;
47373;SDS011;33123;50.118;10.272;2023-02-13T10:29:09;1.40;;;1.30;;
47373;SDS011;33123;50.118;10.272;2023-02-13T10:32:01;1.63;;;1.52;;
47373;SDS011;33123;50.118;10.272;2023-02-13T10:34:33;1.70;;;1.52;;
47373;SDS011;33123;50.118;10.272;2023-02-13T10:37:08;1.10;;;1.10;;
47373;SDS011;33123;50.118;10.272;2023-02-13T10:39:39;3.38;;;2.38;;
47373;SDS011;33123;50.118;10.272;2023-02-13T10:42:10;1.10;;;1.10;;
47373;SDS011;33123;50.118;10.272;2023-02-13T10:44:49;1.48;;;1.38;;
47373;SDS011;33123;50.118;10.272;2023-02-13T10:47:29;0.98;;;0.98;;
47373;SDS011;33123;50.118;10.272;2023-02-13T10:50:10;1.30;;;1.20;;
47373;SDS011;33123;50.118;10.272;2023-02-13T10:52:48;1.83;;;1.60;;
47373;SDS011;33123;50.118;10.272;2023-02-13T10:55:37;2.03;;;1.80;;
47373;SDS011;33123;50.118;10.272;2023-02-13T10:58:26;1.33;;;1.23;;
47373;SDS011;33123;50.118;10.272;2023-02-13T11:01:02;1.42;;;1.30;;
47373;SDS011;33123;50.118;10.272;2023-02-13T11:03:34;2.30;;;2.03;;
47373;SDS011;33123;50.118;10.272;2023-02-13T11:06:04;5.35;;;4.93;;
47373;SDS011;33123;50.118;10.272;2023-02-13T11:08:34;10.30;;;5.70;;
47373;SDS011;33123;50.118;10.272;2023-02-13T11:11:29;2.17;;;1.85;;
47373;SDS011;33123;50.118;10.272;2023-02-13T11:14:06;1.63;;;1.52;;
47373;SDS011;33123;50.118;10.272;2023-02-13T11:16:39;2.15;;;1.95;;
47373;SDS011;33123;50.118;10.272;2023-02-13T11:19:13;1.40;;;1.30;;
47373;SDS011;33123;50.118;10.272;2023-02-13T11:21:44;1.45;;;1.35;;
47373;SDS011;33123;50.118;10.272;2023-02-13T11:24:18;1.52;;;1.42;;
47373;SDS011;33123;50.118;10.272;2023-02-13T11:26:52;1.13;;;1.13;;
47373;SDS011;33123;50.118;10.272;2023-02-13T11:29:23;2.15;;;1.95;;
47373;SDS011;33123;50.118;10.272;2023-02-13T11:34:49;1.77;;;1.67;;
47373;SDS011;33123;50.118;10.272;2023-02-13T11:37:19;1.30;;;1.20;;
47373;SDS011;33123;50.118;10.272;2023-02-13T11:39:48;1.30;;;1.20;;
47373;SDS011;33123;50.118;10.272;2023-02-13T11:42:18;1.73;;;1.63;;
47373;SDS011;33123;50.118;10.272;2023-02-13T11:44:50;1.52;;;1.42;;
47373;SDS011;33123;50.118;10.272;2023-02-13T11:47:29;1.65;;;1.55;;
47373;SDS011;33123;50.118;10.272;2023-02-13T11:49:59;1.70;;;1.60;;
47373;SDS011;33123;50.118;10.272;2023-02-13T11:52:27;1.52;;;1.42;;
47373;SDS011;33123;50.118;10.272;2023-02-13T11:54:58;2.13;;;1.92;;
47373;SDS011;33123;50.118;10.272;2023-02-13T11:57:28;3.28;;;2.15;;
47373;SDS011;33123;50.118;10.272;2023-02-13T11:59:56;14.10;;;12.68;;
47373;SDS011;33123;50.118;10.272;2023-02-13T12:02:24;4.05;;;3.60;;
47373;SDS011;33123;50.118;10.272;2023-02-13T12:04:53;6.68;;;6.05;;
47373;SDS011;33123;50.118;10.272;2023-02-13T12:07:22;1.80;;;1.70;;
47373;SDS011;33123;50.118;10.272;2023-02-13T12:09:54;1.70;;;1.60;;
47373;SDS011;33123;50.118;10.272;2023-02-13T12:12:28;1.50;;;1.40;;
47373;SDS011;33123;50.118;10.272;2023-02-13T12:15:01;2.08;;;1.63;;
47373;SDS011;33123;50.118;10.272;2023-02-13T12:17:36;1.88;;;1.77;;
47373;SDS011;33123;50.118;10.272;2023-02-13T12:20:04;2.28;;;1.67;;
47373;SDS011;33123;50.118;10.272;2023-02-13T12:22:39;3.13;;;2.22;;
47373;SDS011;33123;50.118;10.272;2023-02-13T12:25:26;2.00;;;1.80;;
47373;SDS011;33123;50.118;10.272;2023-02-13T12:28:06;2.75;;;2.55;;
47373;SDS011;33123;50.118;10.272;2023-02-13T12:33:37;2.58;;;1.92;;
47373;SDS011;33123;50.118;10.272;2023-02-13T12:36:34;1.23;;;1.13;;
47373;SDS011;33123;50.118;10.272;2023-02-13T12:39:12;2.33;;;2.13;;
47373;SDS011;33123;50.118;10.272;2023-02-13T12:41:48;1.60;;;1.50;;
47373;SDS011;33123;50.118;10.272;2023-02-13T12:44:32;1.05;;;1.02;;
47373;SDS011;33123;50.118;10.272;2023-02-13T12:47:15;1.08;;;1.08;;
47373;SDS011;33123;50.118;10.272;2023-02-13T12:49:52;1.40;;;1.30;;
47373;SDS011;33123;50.118;10.272;2023-02-13T12:52:32;1.50;;;1.40;;
47373;SDS011;33123;50.118;10.272;2023-02-13T12:55:16;1.55;;;1.48;;
47373;SDS011;33123;50.118;10.272;2023-02-13T12:57:58;1.25;;;1.15;;
47373;SDS011;33123;50.118;10.272;2023-02-13T13:00:37;1.52;;;1.42;;
47373;SDS011;33123;50.118;10.272;2023-02-13T13:03:24;2.35;;;2.17;;
47373;SDS011;33123;50.118;10.272;2023-02-13T13:06:01;1.98;;;1.88;;
47373;SDS011;33123;50.118;10.272;2023-02-13T13:08:40;1.63;;;1.52;;
47373;SDS011;33123;50.118;10.272;2023-02-13T13:11:19;1.40;;;1.30;;
47373;SDS011;33123;50.118;10.272;2023-02-13T13:14:03;2.13;;;1.88;;
47373;SDS011;33123;50.118;10.272;2023-02-13T13:16:38;1.85;;;1.67;;
47373;SDS011;33123;50.118;10.272;2023-02-13T13:19:13;2.20;;;1.98;;
47373;SDS011;33123;50.118;10.272;2023-02-13T13:21:53;3.10;;;2.90;;
47373;SDS011;33123;50.118;10.272;2023-02-13T13:24:29;2.63;;;2.42;;
47373;SDS011;33123;50.118;10.272;2023-02-13T13:27:04;2.00;;;1.80;;
47373;SDS011;33123;50.118;10.272;2023-02-13T13:29:44;3.28;;;1.92;;
47373;SDS011;33123;50.118;10.272;2023-02-13T13:32:15;3.78;;;2.70;;
47373;SDS011;33123;50.118;10.272;2023-02-13T13:34:45;3.13;;;2.83;;
47373;SDS011;33123;50.118;10.272;2023-02-13T13:37:13;2.10;;;1.83;;
47373;SDS011;33123;50.118;10.272;2023-02-13T13:39:49;1.55;;;1.45;;
47373;SDS011;33123;50.118;10.272;2023-02-13T13:42:23;2.40;;;1.90;;
47373;SDS011;33123;50.118;10.272;2023-02-13T13:45:04;3.88;;;3.58;;
47373;SDS011;33123;50.118;10.272;2023-02-13T13:47:45;6.22;;;4.15;;
47373;SDS011;33123;50.118;10.272;2023-02-13T13:50:20;6.93;;;2.33;;
47373;SDS011;33123;50.118;10.272;2023-02-13T13:53:04;1.70;;;1.40;;
47373;SDS011;33123;50.118;10.272;2023-02-13T13:58:30;2.47;;;2.22;;
47373;SDS011;33123;50.118;10.272;2023-02-13T14:01:16;2.08;;;1.63;;
47373;SDS011;33123;50.118;10.272;2023-02-13T14:03:44;2.42;;;2.15;;
47373;SDS011;33123;50.118;10.272;2023-02-13T14:06:12;1.95;;;1.80;;
47373;SDS011;33123;50.118;10.272;2023-02-13T14:17:16;3.05;;;2.13;;
47373;SDS011;33123;50.118;10.272;2023-02-13T14:23:20;3.40;;;2.25;;
47373;SDS011;33123;50.118;10.272;2023-02-13T14:26:33;2.35;;;2.15;;
47373;SDS011;33123;50.118;10.272;2023-02-13T14:31:54;3.20;;;2.13;;
47373;SDS011;33123;50.118;10.272;2023-02-13T14:34:47;2.97;;;2.57;;
47373;SDS011;33123;50.118;10.272;2023-02-13T14:37:18;3.75;;;2.10;;
47373;SDS011;33123;50.118;10.272;2023-02-13T14:42:56;2.65;;;2.00;;
47373;SDS011;33123;50.118;10.272;2023-02-13T14:45:27;2.75;;;2.55;;
47373;SDS011;33123;50.118;10.272;2023-02-13T14:47:57;2.28;;;2.08;;
47373;SDS011;33123;50.118;10.272;2023-02-13T14:50:34;17.35;;;11.82;;
47373;SDS011;33123;50.118;10.272;2023-02-13T14:53:14;2.67;;;2.42;;
47373;SDS011;33123;50.118;10.272;2023-02-13T14:55:45;2.33;;;2.13;;
47373;SDS011;33123;50.118;10.272;2023-02-13T14:58:15;2.20;;;2.00;;
47373;SDS011;33123;50.118;10.272;2023-02-13T15:00:50;2.45;;;2.25;;
47373;SDS011;33123;50.118;10.272;2023-02-13T15:03:22;2.53;;;2.30;;
47373;SDS011;33123;50.118;10.272;2023-02-13T15:05:55;2.50;;;2.30;;
47373;SDS011;33123;50.118;10.272;2023-02-13T15:08:25;1.08;;;1.08;;
47373;SDS011;33123;50.118;10.272;2023-02-13T15:10:56;2.60;;;2.40;;
47373;SDS011;33123;50.118;10.272;2023-02-13T15:13:23;3.60;;;2.50;;
47373;SDS011;33123;50.118;10.272;2023-02-13T15:15:51;3.10;;;2.78;;
47373;SDS011;33123;50.118;10.272;2023-02-13T15:18:21;2.20;;;1.98;;
47373;SDS011;33123;50.118;10.272;2023-02-13T15:20:52;2.58;;;2.22;;
47373;SDS011;33123;50.118;10.272;2023-02-13T15:23:22;1.48;;;1.38;;
47373;SDS011;33123;50.118;10.272;2023-02-13T15:25:57;3.92;;;2.22;;
47373;SDS011;33123;50.118;10.272;2023-02-13T15:28:26;3.30;;;2.35;;
47373;SDS011;33123;50.118;10.272;2023-02-13T15:30:54;2.03;;;1.75;;
47373;SDS011;33123;50.118;10.272;2023-02-13T15:33:23;2.47;;;2.28;;